Time;durP1;ratioP1;P1;durP2;ratioP2;P2;SDS_P1;SDS_P2;PMS_P1;PMS_P2;Temp;Humidity;BMP_temperature;BMP_pressure;BME280_temperature;BME280_humidity;BME280_pressure;Samples;Min_cycle;Max_cycle;Signal;HPM_P1;HPM_P2
2021/06/01 00:04:36;;;;;;;;;;;;;;;13.47;64.59;101564.16;15853368;28;20043;-62
2021/06/01 00:12:10;;;;;;;1999.90;999.90;;;;;;;13.24;64.50;101572.78;15871143;28;19919;-62
2021/06/01 00:19:42;;;;;;;;;;;;;;;13.28;65.13;101564.50;15870556;28;20124;-61
2021/06/01 00:27:15;;;;;;;1999.90;999.90;;;;;;;13.00;65.98;101563.97;15869729;28;19919;-62
2021/06/01 00:34:46;;;;;;;1999.90;999.90;;;;;;;12.96;65.96;101565.81;15870330;28;20043;-63
2021/06/01 00:42:19;;;;;;;1999.90;999.90;;;;;;;12.90;66.74;101559.53;15867627;28;20404;-63
2021/06/01 00:49:51;;;;;;;1999.90;999.90;;;;;;;12.84;66.51;101551.63;15868371;28;20051;-63
2021/06/01 00:57:24;;;;;;;1999.90;999.90;;;;;;;12.83;66.35;101547.19;15868427;28;20075;-63
2021/06/01 01:04:56;;;;;;;1999.90;999.90;;;;;;;12.68;66.64;101551.28;15866323;28;20043;-63
2021/06/01 01:12:37;;;;;;;1999.90;999.90;;;;;;;12.61;66.60;101559.31;15866166;28;20066;-62
2021/06/01 01:20:18;;;;;;;1999.90;999.90;;;;;;;12.57;67.75;101572.31;15848699;28;20048;-62
2021/06/01 01:28:03;;;;;;;1999.90;999.90;;;;;;;12.50;67.86;101563.56;15867026;28;20043;-60
2021/06/01 01:35:38;;;;;;;1999.90;999.90;;;;;;;12.52;68.00;101559.31;15867563;28;20075;-63
2021/06/01 01:43:15;;;;;;;1999.90;999.90;;;;;;;12.25;68.09;101549.19;15865776;28;20044;-62
2021/06/01 01:50:53;;;;;;;1999.90;999.90;;;;;;;12.37;68.69;101549.38;15865677;28;20044;-58
2021/06/01 01:58:25;;;;;;;1999.90;999.90;;;;;;;12.29;68.60;101550.19;15853884;28;20043;-60
2021/06/01 02:05:59;;;;;;;1999.90;999.90;;;;;;;12.17;69.36;101533.19;15876943;28;20488;-60
2021/06/01 02:13:32;;;;;;;1999.90;999.90;;;;;;;12.24;68.12;101530.75;15877702;28;20051;-60
2021/06/01 02:21:19;;;;;;;1999.90;999.90;;;;;;;12.21;68.46;101522.19;15877872;28;20118;-60
2021/06/01 02:28:56;;;;;;;1999.90;999.90;;;;;;;12.08;69.30;101532.34;15876430;28;20058;-61
2021/06/01 02:36:30;;;;;;;1999.90;999.90;;;;;;;12.01;69.69;101524.44;15874835;28;20450;-59
2021/06/01 02:44:01;;;;;;;1999.90;999.90;;;;;;;11.95;69.59;101516.50;15875451;28;20066;-58
2021/06/01 02:51:37;;;;;;;1999.90;999.90;;;;;;;11.95;70.19;101514.53;15874827;28;20043;-62
2021/06/01 02:59:08;;;;;;;1999.90;999.90;;;;;;;11.96;69.14;101516.16;15873551;28;20073;-60
2021/06/01 03:06:42;;;;;;;1999.90;999.90;;;;;;;12.03;69.95;101516.53;15873019;28;20108;-63
2021/06/01 03:14:14;;;;;;;1999.90;999.90;;;;;;;12.04;70.21;101517.34;15856080;28;20043;-61
2021/06/01 03:21:48;;;;;;;1999.90;999.90;;;;;;;12.09;69.95;101515.25;15871919;28;20055;-62
2021/06/01 03:29:20;;;;;;;1999.90;999.90;;;;;;;12.08;70.10;101510.78;15873420;28;20039;-59
2021/06/01 03:36:53;;;;;;;1999.90;999.90;;;;;;;12.16;70.54;101513.94;15872836;28;20047;-60
2021/06/01 03:44:24;;;;;;;1999.90;999.90;;;;;;;12.26;70.00;101517.25;15871092;28;20066;-60
2021/06/01 03:51:57;;;;;;;1999.90;999.90;;;;;;;12.35;70.27;101508.88;15869744;28;20063;-62
2021/06/01 03:59:29;;;;;;;1999.90;999.90;;;;;;;12.44;70.52;101504.13;15852796;28;20412;-57
2021/06/01 04:07:04;;;;;;;1999.90;999.90;;;;;;;12.79;69.87;101504.97;15870480;28;20142;-61
2021/06/01 04:14:35;;;;;;;1999.90;999.90;;;;;;;12.87;70.04;101517.34;15870880;28;20047;-60
2021/06/01 04:22:10;;;;;;;1999.90;999.90;;;;;;;13.30;68.89;101506.13;15850052;28;20130;-62
2021/06/01 04:29:41;;;;;;;1999.90;999.90;;;;;;;13.70;68.56;101511.50;15868839;28;20035;-62
2021/06/01 04:37:14;;;;;;;1999.90;999.90;;;;;;;14.02;68.90;101505.25;15868455;28;20043;-62
2021/06/01 04:44:47;;;;;;;1999.90;999.90;;;;;;;14.32;68.66;101511.69;15868902;28;20047;-62
2021/06/01 04:52:20;;;;;;;1999.90;999.90;;;;;;;14.68;66.81;101513.13;15866704;28;20040;-61
2021/06/01 04:59:52;;;;;;;1999.90;999.90;;;;;;;14.92;66.55;101509.66;15849865;28;20051;-62
2021/06/01 05:07:25;;;;;;;1999.90;999.90;;;;;;;15.30;65.71;101517.91;15867223;28;20048;-60
2021/06/01 05:14:57;;;;;;;1999.90;999.90;;;;;;;15.81;65.06;101526.97;15864846;28;20048;-60
2021/06/01 05:22:30;;;;;;;1999.90;999.90;;;;;;;16.27;65.62;101525.75;15865165;28;20080;-59
2021/06/01 05:30:04;;;;;;;1999.90;999.90;;;;;;;16.61;64.35;101529.22;15864892;28;20055;-61
2021/06/01 05:37:37;;;;;;;1999.90;999.90;;;;;;;17.43;63.81;101531.72;15878138;27;20508;-62
2021/06/01 05:45:09;;;;;;;1999.90;999.90;;;;;;;18.07;61.97;101528.63;15877402;28;20047;-60
2021/06/01 05:52:42;;;;;;;1999.90;999.90;;;;;;;18.49;60.59;101524.38;15878192;28;20134;-61
2021/06/01 06:00:15;;;;;;;1999.90;999.90;;;;;;;18.88;60.33;101522.50;15876686;28;20051;-60
2021/06/01 06:07:48;;;;;;;1999.90;999.90;;;;;;;19.36;60.75;101532.41;15877428;28;20073;-63
2021/06/01 06:15:20;;;;;;;1999.90;999.90;;;;;;;19.84;59.99;101532.94;15877432;28;20043;-60
2021/06/01 06:22:53;;;;;;;1999.90;999.90;;;;;;;20.34;57.17;101523.31;15876323;28;20043;-62
2021/06/01 06:30:25;;;;;;;1999.90;999.90;;;;;;;21.28;55.08;101529.97;15875003;28;20447;-61
2021/06/01 06:37:58;;;;;;;1999.90;999.90;;;;;;;22.10;51.03;101527.19;15874302;28;20497;-61
2021/06/01 06:45:31;;;;;;;1999.90;999.90;;;;;;;22.20;53.31;101523.63;15874170;28;20315;-62
2021/06/01 06:53:05;;;;;;;;;;;;;;;22.60;51.13;101514.16;15877274;28;20051;-63
2021/06/01 07:00:36;;;;;;;1999.90;999.90;;;;;;;22.42;50.38;101507.53;15877129;28;20428;-60
2021/06/01 07:08:10;;;;;;;1999.90;999.90;;;;;;;23.33;49.77;101506.41;15873776;28;20040;-59
2021/06/01 07:15:46;;;;;;;1999.90;999.90;;;;;;;23.63;49.61;101501.63;15876993;28;20145;-64
2021/06/01 07:23:20;;;;;;;1999.90;999.90;;;;;;;24.60;47.51;101503.31;15878196;28;20044;-63
2021/06/01 07:30:53;;;;;;;1999.90;999.90;;;;;;;24.63;47.68;101506.16;15873509;28;20115;-61
2021/06/01 07:38:27;;;;;;;1999.90;999.90;;;;;;;25.05;45.85;101498.72;15873326;28;20031;-60
2021/06/01 07:46:02;;;;;;;1999.90;999.90;;;;;;;24.72;46.71;101498.00;15874257;28;20385;-61
2021/06/01 07:53:35;;;;;;;1999.90;999.90;;;;;;;24.76;45.00;101497.97;15868361;28;20130;-61
2021/06/01 08:01:06;;;;;;;1999.90;999.90;;;;;;;25.59;46.53;101511.50;15869833;28;20050;-62
2021/06/01 08:08:40;;;;;;;1999.90;999.90;;;;;;;27.03;41.20;101497.59;15868932;28;20054;-62
2021/06/01 08:16:11;;;;;;;1999.90;999.90;;;;;;;27.68;38.41;101472.56;15870359;28;20372;-62
2021/06/01 08:23:44;;;;;;;1999.90;999.90;;;;;;;27.13;38.75;101462.28;15869545;28;20051;-60
2021/06/01 08:31:16;;;;;;;1999.90;999.90;;;;;;;28.24;37.34;101457.69;15868642;28;20072;-61
2021/06/01 08:38:52;;;;;;;1999.90;999.90;;;;;;;28.15;35.46;101456.22;15868883;27;20439;-61
2021/06/01 08:46:24;;;;;;;1999.90;999.90;;;;;;;27.96;40.55;101451.22;15868616;28;20057;-62
2021/06/01 08:53:58;;;;;;;1999.90;999.90;;;;;;;29.26;34.88;101443.34;15849523;28;20075;-62
2021/06/01 09:01:30;;;;;;;1999.90;999.90;;;;;;;28.42;35.26;101441.00;15866666;28;20051;-61
2021/06/01 09:09:19;;;;;;;1999.90;999.90;;;;;;;28.47;35.68;101443.38;15867486;28;20059;-62
2021/06/01 09:24:59;;;;;;;1999.90;999.90;;;;;;;29.95;38.13;101431.88;15870541;28;20500;-63
2021/06/01 09:32:32;;;;;;;1999.90;999.90;;;;;;;30.15;35.17;101423.19;15873005;28;20043;-61
2021/06/01 09:40:17;;;;;;;1999.90;999.90;;;;;;;30.11;35.59;101411.75;15866038;28;20126;-63
2021/06/01 09:47:52;;;;;;;1999.90;999.90;;;;;;;30.48;31.36;101405.81;15865838;28;20048;-63
2021/06/01 09:55:30;;;;;;;1999.90;999.90;;;;;;;29.83;33.06;101409.59;15866364;28;20097;-64
2021/06/01 10:03:04;;;;;;;1999.90;999.90;;;;;;;30.95;30.87;101388.81;15865187;28;20354;-61
2021/06/01 10:10:38;;;;;;;1999.90;999.90;;;;;;;31.30;30.10;101381.97;15864874;28;20493;-64
2021/06/01 10:18:12;;;;;;;1999.90;999.90;;;;;;;31.64;28.45;101371.78;15869440;28;20044;-64
2021/06/01 10:25:45;;;;;;;1999.90;999.90;;;;;;;30.99;27.26;101380.88;15876839;28;20500;-62
2021/06/01 10:33:19;;;;;;;1999.90;999.90;;;;;;;31.47;27.58;101367.41;15876472;28;20035;-63
2021/06/01 10:49:43;;;;;;;1999.90;999.90;;;;;;;31.42;28.99;101347.81;15875356;28;20040;-63
2021/06/01 10:57:13;;;;;;;1999.90;999.90;;;;;;;32.18;26.61;101342.66;15874903;28;20130;-63
2021/06/01 11:04:59;;;;;;;1999.90;999.90;;;;;;;31.37;28.71;101337.69;15873393;28;20039;-63
2021/06/01 11:12:46;;;;;;;1999.90;999.90;;;;;;;31.12;27.50;101331.88;15872705;28;20040;-63
2021/06/01 11:20:23;;;;;;;1999.90;999.90;;;;;;;31.93;27.33;101328.34;15872266;28;20391;-63
2021/06/01 11:35:59;;;;;;;1999.90;999.90;;;;;;;31.98;27.09;101330.63;15797089;27;20400;-63
2021/06/01 11:43:31;;;;;;;1999.90;999.90;;;;;;;30.50;28.98;101317.72;15796283;28;20045;-63
2021/06/01 11:51:16;;;;;;;1999.90;999.90;;;;;;;30.41;30.59;101306.06;15795839;28;20054;-63
2021/06/01 12:22:45;;;;;;;1999.90;999.90;;;;;;;30.13;30.48;101284.69;15792296;28;20409;-63
2021/06/01 12:46:27;;;;;;;1999.90;999.90;;;;;;;34.26;24.81;101280.88;15704324;28;20048;-63
2021/06/01 13:49:24;;;;;;;1999.90;999.90;;;;;;;28.22;27.45;101237.22;15734704;28;20035;-63
2021/06/01 13:57:04;;;;;;;1999.90;999.90;;;;;;;27.78;25.55;101225.00;15716284;28;20037;-64
2021/06/01 14:20:50;;;;;;;1999.90;999.90;;;;;;;27.29;26.70;101218.91;15689435;28;20052;-64
2021/06/01 15:31:47;;;;;;;1999.90;999.90;;;;;;;27.24;29.36;101172.78;15641094;28;20419;-64
2021/06/01 16:42:39;;;;;;;1999.90;999.90;;;;;;;25.60;30.31;101149.41;15729718;28;20048;-63
2021/06/01 17:06:03;;;;;;;1999.90;999.90;;;;;;;24.10;32.82;101158.38;15747770;28;20044;-65
2021/06/01 17:13:37;;;;;;;1999.90;999.90;;;;;;;23.48;35.76;101161.84;15706801;28;20059;-63
2021/06/01 17:37:15;;;;;;;1999.90;999.90;;;;;;;22.76;38.01;101176.13;15668777;28;20120;-64
2021/06/01 17:44:48;;;;;;;1999.90;999.90;;;;;;;22.56;39.73;101171.22;15742804;28;20090;-62
2021/06/01 17:52:23;;;;;;;;;;;;;;;22.61;40.56;101182.19;15723697;28;20556;-63
2021/06/01 17:59:55;;;;;;;1999.90;999.90;;;;;;;22.44;40.99;101163.91;15696879;28;19924;-65
2021/06/01 18:07:32;;;;;;;1999.90;999.90;;;;;;;22.63;42.34;101174.09;15724368;28;20084;-65
2021/06/01 19:02:20;;;;;;;1999.90;999.90;;;;;;;20.92;52.80;101210.91;15724140;28;20390;-66
2021/06/01 19:25:54;;;;;;;1999.90;999.90;;;;;;;20.32;54.34;101235.78;15720935;28;20509;-67
2021/06/01 19:57:04;;;;;;;1999.90;999.90;;;;;;;19.51;52.85;101268.25;15742820;28;20505;-63
2021/06/01 20:04:36;;;;;;;1999.90;999.90;;;;;;;19.24;50.71;101273.06;15705645;28;20033;-64
2021/06/01 20:12:09;;;;;;;1999.90;999.90;;;;;;;19.27;47.89;101286.47;15704978;28;20053;-61
2021/06/01 20:19:43;;;;;;;1999.90;999.90;;;;;;;19.19;47.39;101289.56;15696621;28;20421;-62
2021/06/01 20:27:16;;;;;;;1999.90;999.90;;;;;;;18.86;46.53;101284.50;15697871;28;20045;-63
2021/06/01 20:34:48;;;;;;;1999.90;999.90;;;;;;;18.74;45.41;101294.81;15711281;28;20041;-65
2021/06/01 20:42:22;;;;;;;1999.90;999.90;;;;;;;18.81;45.22;101294.13;15718575;28;20040;-64
2021/06/01 20:49:54;;;;;;;1999.90;999.90;;;;;;;18.71;45.50;101284.25;15714282;28;20121;-63
2021/06/01 20:57:29;;;;;;;1999.90;999.90;;;;;;;18.73;46.15;101298.81;15733869;28;20555;-63
2021/06/01 21:05:01;;;;;;;1999.90;999.90;;;;;;;18.51;44.54;101295.94;15732628;28;20098;-62
2021/06/01 21:12:34;;;;;;;1999.90;999.90;;;;;;;18.42;45.11;101299.78;15727503;28;20095;-64
2021/06/01 21:20:09;;;;;;;1999.90;999.90;;;;;;;18.39;45.09;101294.91;15697900;28;20095;-64
2021/06/01 21:27:43;;;;;;;1999.90;999.90;;;;;;;18.24;44.35;101307.09;15708576;28;20468;-64
2021/06/01 21:35:15;;;;;;;;;;;;;;;18.21;43.96;101295.72;15714508;28;20044;-64
2021/06/01 21:42:49;;;;;;;1999.90;999.90;;;;;;;17.98;44.10;101295.63;15716859;28;19927;-64
2021/06/01 21:50:25;;;;;;;1999.90;999.90;;;;;;;17.96;44.14;101300.84;15712876;28;20056;-64
2021/06/01 21:57:58;;;;;;;1999.90;999.90;;;;;;;17.91;44.40;101303.94;15717063;28;20037;-63
2021/06/01 22:05:29;;;;;;;1999.90;999.90;;;;;;;17.75;44.74;101304.81;15722357;28;20409;-64
2021/06/01 22:13:04;;;;;;;1999.90;999.90;;;;;;;17.60;45.70;101305.59;15711741;28;20051;-65
2021/06/01 22:20:38;;;;;;;1999.90;999.90;;;;;;;17.55;45.95;101301.06;15728442;28;20040;-64
2021/06/01 22:28:11;;;;;;;1999.90;999.90;;;;;;;17.59;45.98;101290.69;15714126;28;20044;-65
2021/06/01 22:35:44;;;;;;;1999.90;999.90;;;;;;;17.41;47.21;101283.00;15682390;28;20041;-64
2021/06/01 22:43:17;;;;;;;1999.90;999.90;;;;;;;17.51;47.29;101288.06;15681454;28;20353;-64
2021/06/01 22:50:51;;;;;;;1999.90;999.90;;;;;;;17.55;48.29;101294.63;15682650;28;20053;-64
2021/06/01 22:58:27;;;;;;;1999.90;999.90;;;;;;;17.49;47.97;101290.41;15688073;28;20049;-63
2021/06/01 23:05:59;;;;;;;1999.90;999.90;;;;;;;17.27;48.28;101284.25;15678019;28;20028;-64
2021/06/01 23:13:34;;;;;;;1999.90;999.90;;;;;;;17.28;49.36;101285.06;15674360;28;20057;-64
2021/06/01 23:21:06;;;;;;;1999.90;999.90;;;;;;;16.91;49.35;101274.09;15709004;28;20045;-63
2021/06/01 23:28:39;;;;;;;1999.90;999.90;;;;;;;16.89;48.94;101290.56;15717556;28;20506;-63
2021/06/01 23:36:37;;;;;;;1999.90;999.90;;;;;;;16.86;49.59;101279.16;15719645;28;20029;-63
2021/06/01 23:44:10;;;;;;;1999.90;999.90;;;;;;;16.64;49.67;101278.56;15691637;28;20166;-63
2021/06/01 23:51:42;;;;;;;1999.90;999.90;;;;;;;16.71;49.80;101283.59;15699058;28;20037;-63
2021/06/01 23:59:17;;;;;;;1999.90;999.90;;;;;;;16.70;50.54;101299.69;15715236;28;20071;-64
